Time;durP1;ratioP1;P1;durP2;ratioP2;P2;SDS_P1;SDS_P2;PMS_P1;PMS_P2;Temp;Humidity;BMP_temperature;BMP_pressure;BME280_temperature;BME280_humidity;BME280_pressure;Samples;Min_cycle;Max_cycle;Signal;HPM_P1;HPM_P2
2021/01/19 00:01:07;;;;;;;;;;;27.40;32.50;;;;;;5034099;28;19916;-58
2021/01/19 00:03:32;;;;;;;;;;;27.40;32.60;;;;;;5034242;28;19957;-58
2021/01/19 00:05:58;;;;;;;;;;;27.40;32.70;;;;;;5034092;28;19944;-58
2021/01/19 00:08:24;;;;;;;;;;;27.40;32.70;;;;;;5034139;28;19944;-56
2021/01/19 00:10:50;;;;;;;;;;;27.40;32.80;;;;;;5033344;28;19920;-57
2021/01/19 00:13:19;;;;;;;;;;;27.40;32.80;;;;;;5034133;28;19913;-59
2021/01/19 00:15:46;;;;;;;;;;;27.40;32.90;;;;;;5034038;28;19967;-55
2021/01/19 00:18:11;;;;;;;;;;;27.40;32.90;;;;;;5033570;28;20366;-58
2021/01/19 00:20:37;;;;;;;;;;;27.40;32.90;;;;;;5033737;28;19949;-57
2021/01/19 00:23:02;;;;;;;;;;;27.40;33.00;;;;;;5033921;28;19917;-58
2021/01/19 00:25:28;;;;;;;;;;;27.40;33.00;;;;;;5033955;28;20444;-56
2021/01/19 00:27:53;;;;;;;;;;;27.40;33.10;;;;;;5033772;28;19920;-57
2021/01/19 00:30:19;;;;;;;;;;;27.40;33.10;;;;;;5033913;28;19932;-56
2021/01/19 00:32:45;;;;;;;;;;;27.30;33.10;;;;;;5033193;28;19913;-54
2021/01/19 00:35:10;;;;;;;;;;;27.40;33.20;;;;;;5033547;28;19917;-56
2021/01/19 00:37:36;;;;;;;;;;;27.40;33.20;;;;;;5033537;28;19913;-59
2021/01/19 00:40:02;;;;;;;;;;;27.30;33.20;;;;;;5033363;28;19916;-58
2021/01/19 00:42:27;;;;;;;;;;;27.30;33.20;;;;;;5033297;28;19913;-57
2021/01/19 00:44:53;;;;;;;;;;;27.30;33.20;;;;;;5033678;28;19920;-58
2021/01/19 00:47:18;;;;;;;;;;;27.30;33.30;;;;;;5033273;28;20358;-57
2021/01/19 00:49:44;;;;;;;;;;;27.30;33.30;;;;;;5033253;28;19920;-58
2021/01/19 00:52:09;;;;;;;;;;;27.30;33.40;;;;;;5033460;28;19909;-58
2021/01/19 00:54:35;;;;;;;;;;;27.30;33.40;;;;;;5033068;28;19928;-56
2021/01/19 00:57:00;;;;;;;;;;;27.30;33.40;;;;;;5033439;28;20505;-58
2021/01/19 00:59:26;;;;;;;;;;;27.30;33.40;;;;;;5033423;28;19919;-56
2021/01/19 01:01:51;;;;;;;;;;;27.30;33.40;;;;;;5033043;28;19917;-58
2021/01/19 01:04:17;;;;;;;;;;;27.30;33.40;;;;;;5033135;28;19917;-58
2021/01/19 01:06:42;;;;;;;;;;;27.30;33.50;;;;;;5033338;28;20331;-55
2021/01/19 01:09:08;;;;;;;;;;;27.30;33.50;;;;;;5033000;28;19917;-55
2021/01/19 01:11:37;;;;;;;;;;;27.30;33.50;;;;;;5033221;28;19917;-58
2021/01/19 01:14:03;;;;;;;;;;;27.30;33.60;;;;;;5033203;28;19909;-57
2021/01/19 01:16:29;;;;;;;;;;;27.30;33.60;;;;;;5032656;28;20326;-57
2021/01/19 01:18:54;;;;;;;;;;;27.30;33.60;;;;;;5033249;28;19960;-57
2021/01/19 01:21:19;;;;;;;;;;;27.20;33.60;;;;;;5033100;28;19909;-57
2021/01/19 01:23:45;;;;;;;;;;;27.20;33.60;;;;;;5032655;28;20370;-58
2021/01/19 01:26:10;;;;;;;;;;;27.20;33.60;;;;;;5032817;28;19913;-55
2021/01/19 01:28:36;;;;;;;;;;;27.20;33.70;;;;;;5033074;28;19909;-54
2021/01/19 01:31:01;;;;;;;;;;;27.20;34.30;;;;;;5032756;28;19959;-56
2021/01/19 01:33:27;;;;;;;;;;;27.20;33.70;;;;;;5032801;28;19913;-54
2021/01/19 01:35:52;;;;;;;;;;;27.20;33.70;;;;;;5032602;28;19996;-57
2021/01/19 01:38:18;;;;;;;;;;;27.20;33.80;;;;;;5032775;28;19909;-57
2021/01/19 01:40:43;;;;;;;;;;;27.20;33.80;;;;;;5032440;28;20350;-56
2021/01/19 01:43:09;;;;;;;;;;;27.10;33.80;;;;;;5032264;28;19929;-57
2021/01/19 01:45:35;;;;;;;;;;;27.10;33.80;;;;;;5032809;28;19916;-56
2021/01/19 01:48:00;;;;;;;;;;;27.10;33.90;;;;;;5032968;28;20274;-59
2021/01/19 01:50:26;;;;;;;;;;;27.10;33.80;;;;;;5048073;28;19996;-58
2021/01/19 01:52:51;;;;;;;;;;;27.10;33.80;;;;;;5047840;28;19916;-57
2021/01/19 01:55:17;;;;;;;;;;;27.10;33.90;;;;;;5032607;28;20000;-57
2021/01/19 01:57:42;;;;;;;;;;;27.10;33.80;;;;;;5032196;28;19971;-58
2021/01/19 02:00:09;;;;;;;;;;;27.10;33.80;;;;;;5032627;28;19913;-56
2021/01/19 02:02:34;;;;;;;;;;;27.10;33.80;;;;;;5032552;28;19917;-56
2021/01/19 02:05:00;;;;;;;;;;;27.10;33.80;;;;;;5032216;28;19924;-54
2021/01/19 02:07:31;;;;;;;;;;;27.10;33.80;;;;;;5032433;28;19916;-58
2021/01/19 02:10:16;;;;;;;;;;;27.10;33.90;;;;;;5032752;28;19963;-56
2021/01/19 02:12:51;;;;;;;;;;;27.10;33.90;;;;;;5047838;28;19959;-57
2021/01/19 02:15:17;;;;;;;;;;;27.00;33.80;;;;;;5049111;28;19909;-59
2021/01/19 02:17:50;;;;;;;;;;;27.00;33.90;;;;;;5036476;28;19909;-57
2021/01/19 02:20:36;;;;;;;;;;;27.00;33.90;;;;;;5051324;28;19913;-57
2021/01/19 02:23:20;;;;;;;;;;;27.00;34.00;;;;;;5031775;28;19924;-56
2021/01/19 02:25:58;;;;;;;;;;;27.00;34.00;;;;;;5051346;28;19909;-58
2021/01/19 02:28:49;;;;;;;;;;;27.00;34.60;;;;;;5035253;28;19940;-57
2021/01/19 02:31:33;;;;;;;;;;;27.00;34.00;;;;;;5036001;28;19917;-57
2021/01/19 02:34:27;;;;;;;;;;;26.90;34.00;;;;;;5036069;28;19952;-56
2021/01/19 02:37:12;;;;;;;;;;;26.90;34.00;;;;;;5016282;28;19956;-58
2021/01/19 02:39:37;;;;;;;;;;;26.90;34.00;;;;;;5035688;28;20337;-56
2021/01/19 02:42:04;;;;;;;;;;;26.90;34.00;;;;;;5035690;28;20011;-58
2021/01/19 02:44:30;;;;;;;;;;;26.90;34.00;;;;;;5035611;28;19917;-58
2021/01/19 02:46:56;;;;;;;;;;;26.90;34.00;;;;;;5035590;28;20316;-58
2021/01/19 02:49:22;;;;;;;;;;;26.90;34.00;;;;;;5051183;28;19916;-57
2021/01/19 02:51:48;;;;;;;;;;;26.90;34.00;;;;;;5035524;28;19913;-58
2021/01/19 02:54:14;;;;;;;;;;;26.90;34.60;;;;;;5035482;28;19927;-57
2021/01/19 02:56:49;;;;;;;;;;;26.90;34.00;;;;;;5035193;28;20426;-58
2021/01/19 02:59:17;;;;;;;;;;;26.90;34.10;;;;;;5035371;28;19920;-58
2021/01/19 03:01:44;;;;;;;;;;;26.90;34.00;;;;;;5050636;28;20349;-58
2021/01/19 03:04:10;;;;;;;;;;;26.90;34.10;;;;;;5050683;28;19917;-58
2021/01/19 03:06:35;;;;;;;;;;;26.90;34.10;;;;;;5050848;28;19909;-56
2021/01/19 03:09:01;;;;;;;;;;;26.90;34.10;;;;;;5035132;28;20328;-56
2021/01/19 03:11:26;;;;;;;;;;;26.90;34.10;;;;;;5050258;28;19929;-56
2021/01/19 03:13:52;;;;;;;;;;;26.90;34.20;;;;;;5050731;28;19909;-55
2021/01/19 03:16:18;;;;;;;;;;;26.90;34.10;;;;;;5034983;28;19909;-57
2021/01/19 03:18:44;;;;;;;;;;;26.90;34.10;;;;;;5034992;28;20367;-58
2021/01/19 03:21:09;;;;;;;;;;;26.90;34.10;;;;;;5035141;28;19920;-57
2021/01/19 03:23:35;;;;;;;;;;;26.90;34.20;;;;;;5034848;28;19917;-58
2021/01/19 03:26:01;;;;;;;;;;;26.90;34.20;;;;;;5034759;28;19920;-55
2021/01/19 03:28:27;;;;;;;;;;;26.90;34.20;;;;;;5035157;28;20309;-56
2021/01/19 03:30:52;;;;;;;;;;;26.90;34.20;;;;;;5034763;28;19948;-58
2021/01/19 03:33:18;;;;;;;;;;;26.90;34.20;;;;;;5034622;28;20000;-57
2021/01/19 03:35:43;;;;;;;;;;;26.80;34.10;;;;;;5034387;28;19913;-58
2021/01/19 03:38:09;;;;;;;;;;;26.90;34.20;;;;;;5034912;28;19909;-58
2021/01/19 03:40:34;;;;;;;;;;;26.90;34.20;;;;;;5034564;28;19979;-57
2021/01/19 03:43:00;;;;;;;;;;;26.90;34.10;;;;;;5034380;28;19936;-57
2021/01/19 03:45:26;;;;;;;;;;;26.90;34.10;;;;;;5034391;28;19916;-54
2021/01/19 03:47:51;;;;;;;;;;;26.80;34.10;;;;;;5034601;28;19909;-58
2021/01/19 03:50:17;;;;;;;;;;;26.80;34.10;;;;;;5034354;28;20345;-57
2021/01/19 03:52:42;;;;;;;;;;;26.80;34.10;;;;;;5034118;28;19920;-57
2021/01/19 03:55:08;;;;;;;;;;;26.80;34.10;;;;;;5034305;28;19959;-57
2021/01/19 03:57:33;;;;;;;;;;;26.80;34.10;;;;;;5034414;28;19909;-58
2021/01/19 03:59:59;;;;;;;;;;;26.80;34.10;;;;;;5034148;28;19909;-57
2021/01/19 04:02:24;;;;;;;;;;;26.80;34.20;;;;;;5034310;28;19924;-57
2021/01/19 04:04:52;;;;;;;;;;;26.80;34.20;;;;;;5033816;28;19986;-58
2021/01/19 04:07:18;;;;;;;;;;;26.70;34.10;;;;;;5034416;28;19910;-55
2021/01/19 04:09:44;;;;;;;;;;;26.70;34.10;;;;;;5034017;28;20127;-57
2021/01/19 04:12:09;;;;;;;;;;;26.80;34.10;;;;;;5034237;28;19910;-58
2021/01/19 04:14:35;;;;;;;;;;;26.70;34.10;;;;;;5034173;28;20437;-57
2021/01/19 04:17:00;;;;;;;;;;;26.80;34.20;;;;;;5033852;28;19913;-57
2021/01/19 04:19:26;;;;;;;;;;;26.70;34.10;;;;;;5033589;28;19960;-58
2021/01/19 04:21:51;;;;;;;;;;;26.80;34.20;;;;;;5033873;28;20008;-57
2021/01/19 04:24:16;;;;;;;;;;;26.80;34.20;;;;;;5033838;28;20286;-56
2021/01/19 04:26:42;;;;;;;;;;;26.70;34.10;;;;;;5033998;28;19999;-57
2021/01/19 04:29:08;;;;;;;;;;;26.80;34.10;;;;;;5033235;28;20389;-58
2021/01/19 04:31:33;;;;;;;;;;;26.70;34.10;;;;;;5033610;28;19916;-56
2021/01/19 04:33:59;;;;;;;;;;;26.70;34.10;;;;;;5033835;28;19909;-58
2021/01/19 04:36:26;;;;;;;;;;;26.70;34.10;;;;;;5032575;28;20220;-55
2021/01/19 04:38:51;;;;;;;;;;;26.70;34.10;;;;;;5033039;28;19967;-56
2021/01/19 04:41:17;;;;;;;;;;;26.70;34.10;;;;;;5033660;28;19923;-55
2021/01/19 04:43:42;;;;;;;;;;;26.70;34.10;;;;;;5033303;28;19917;-53
2021/01/19 04:46:08;;;;;;;;;;;26.70;34.10;;;;;;5033632;28;19909;-55
2021/01/19 04:48:34;;;;;;;;;;;26.70;34.10;;;;;;5033393;28;19913;-57
2021/01/19 04:50:59;;;;;;;;;;;26.70;34.10;;;;;;5048838;28;20378;-57
2021/01/19 04:53:25;;;;;;;;;;;26.70;34.10;;;;;;5048910;28;19920;-54
2021/01/19 04:55:54;;;;;;;;;;;26.70;34.10;;;;;;5033206;28;20497;-55
2021/01/19 04:58:21;;;;;;;;;;;26.70;34.10;;;;;;5033103;28;19913;-59
2021/01/19 05:00:53;;;;;;;;;;;26.70;34.10;;;;;;5033544;28;20285;-57
2021/01/19 05:03:24;;;;;;;;;;;26.70;34.10;;;;;;5047873;28;19917;-56
2021/01/19 05:05:59;;;;;;;;;;;26.70;34.20;;;;;;5048287;28;19913;-57
2021/01/19 05:08:25;;;;;;;;;;;26.70;34.20;;;;;;5033089;28;19913;-58
2021/01/19 05:10:57;;;;;;;;;;;26.70;34.20;;;;;;5033261;28;19913;-56
2021/01/19 05:13:41;;;;;;;;;;;26.60;34.10;;;;;;5033360;28;20003;-57
2021/01/19 05:16:08;;;;;;;;;;;26.60;34.20;;;;;;5033306;28;19979;-59
2021/01/19 05:18:34;;;;;;;;;;;26.60;34.20;;;;;;5048174;28;19952;-57
2021/01/19 05:20:59;;;;;;;;;;;26.60;34.20;;;;;;5048238;28;19944;-58
2021/01/19 05:23:25;;;;;;;;;;;26.60;34.20;;;;;;5032770;28;20428;-54
2021/01/19 05:25:57;;;;;;;;;;;26.60;34.20;;;;;;5032887;28;19913;-59
2021/01/19 05:28:29;;;;;;;;;;;26.60;34.20;;;;;;5033064;28;19917;-56
2021/01/19 05:30:55;;;;;;;;;;;26.60;34.10;;;;;;5032722;28;19913;-56
2021/01/19 05:33:20;;;;;;;;;;;26.60;34.10;;;;;;5033129;28;19913;-55
2021/01/19 05:35:45;;;;;;;;;;;26.60;34.10;;;;;;5032736;28;20288;-57
2021/01/19 05:38:11;;;;;;;;;;;26.60;34.20;;;;;;5032791;28;20012;-58
2021/01/19 05:40:43;;;;;;;;;;;26.60;34.20;;;;;;5032541;28;19913;-57
2021/01/19 05:43:11;;;;;;;;;;;26.60;34.10;;;;;;5032675;28;19928;-56
2021/01/19 05:45:37;;;;;;;;;;;26.60;34.20;;;;;;5032466;28;20017;-58
2021/01/19 05:48:15;;;;;;;;;;;26.60;34.20;;;;;;5032759;28;20382;-57
2021/01/19 05:50:40;;;;;;;;;;;26.60;34.20;;;;;;5034921;28;19909;-56
2021/01/19 05:53:13;;;;;;;;;;;26.60;34.20;;;;;;5036615;28;19915;-55
2021/01/19 05:55:39;;;;;;;;;;;26.60;34.20;;;;;;5036493;28;19943;-56
2021/01/19 05:58:11;;;;;;;;;;;26.60;34.20;;;;;;5051880;28;19919;-58
2021/01/19 06:00:36;;;;;;;;;;;26.60;34.20;;;;;;5036260;28;19920;-53
2021/01/19 06:03:07;;;;;;;;;;;26.60;34.10;;;;;;5036509;28;19921;-56
2021/01/19 06:05:32;;;;;;;;;;;26.60;34.20;;;;;;5051796;28;19953;-57
2021/01/19 06:07:58;;;;;;;;;;;26.60;34.10;;;;;;5036605;28;19970;-55
2021/01/19 06:10:23;;;;;;;;;;;26.60;34.10;;;;;;5051619;28;19916;-56
2021/01/19 06:12:49;;;;;;;;;;;26.60;34.20;;;;;;5051594;28;19959;-57
2021/01/19 06:15:15;;;;;;;;;;;26.60;34.20;;;;;;5035817;28;20024;-56
2021/01/19 06:17:40;;;;;;;;;;;26.60;34.20;;;;;;5051447;28;19909;-56
2021/01/19 06:20:06;;;;;;;;;;;26.60;34.20;;;;;;5035837;28;19914;-57
2021/01/19 06:22:32;;;;;;;;;;;26.50;34.20;;;;;;5036049;28;19917;-54
2021/01/19 06:24:58;;;;;;;;;;;26.50;34.20;;;;;;5051693;28;19919;-56
2021/01/19 06:27:23;;;;;;;;;;;26.50;34.20;;;;;;5035990;28;19913;-56
2021/01/19 06:29:49;;;;;;;;;;;26.50;34.20;;;;;;5036042;28;20343;-56
2021/01/19 06:32:15;;;;;;;;;;;26.50;34.20;;;;;;5035767;28;19924;-57
2021/01/19 06:34:41;;;;;;;;;;;26.50;34.20;;;;;;5035734;28;20004;-58
2021/01/19 06:37:08;;;;;;;;;;;26.50;34.20;;;;;;5035774;28;19910;-58
2021/01/19 06:39:42;;;;;;;;;;;26.50;34.20;;;;;;5035998;28;19920;-57
2021/01/19 06:42:14;;;;;;;;;;;26.50;34.20;;;;;;5036036;28;19920;-57
2021/01/19 06:44:47;;;;;;;;;;;26.50;34.20;;;;;;5016118;28;19921;-57
2021/01/19 06:47:13;;;;;;;;;;;26.50;34.20;;;;;;5015851;28;19916;-57
2021/01/19 06:49:39;;;;;;;;;;;26.50;34.20;;;;;;5015883;28;19948;-58
2021/01/19 06:52:05;;;;;;;;;;;26.50;34.20;;;;;;5028246;28;19948;-58
2021/01/19 06:54:34;;;;;;;;;;;26.50;34.20;;;;;;5035545;28;19936;-57
2021/01/19 06:57:02;;;;;;;;;;;26.50;34.10;;;;;;5051161;28;19909;-57
2021/01/19 06:59:30;;;;;;;;;;;26.50;34.20;;;;;;5050769;28;20363;-58
2021/01/19 07:01:56;;;;;;;;;;;26.50;34.20;;;;;;5034558;28;20362;-58
2021/01/19 07:04:24;;;;;;;;;;;26.50;34.20;;;;;;5035525;28;19917;-57
2021/01/19 07:07:03;;;;;;;;;;;26.50;34.20;;;;;;5035577;28;19909;-58
2021/01/19 07:09:48;;;;;;;;;;;26.50;34.20;;;;;;5035182;28;20022;-59
2021/01/19 07:12:17;;;;;;;;;;;26.50;34.20;;;;;;5050823;28;20011;-58
2021/01/19 07:14:44;;;;;;;;;;;26.40;34.10;;;;;;5050733;28;19910;-58
2021/01/19 07:17:10;;;;;;;;;;;26.50;34.20;;;;;;5035078;28;19913;-55
2021/01/19 07:19:42;;;;;;;;;;;26.40;34.10;;;;;;5034989;28;20012;-57
2021/01/19 07:22:08;;;;;;;;;;;26.40;34.10;;;;;;5034847;28;19910;-56
2021/01/19 07:24:41;;;;;;;;;;;26.50;34.20;;;;;;5034572;28;19932;-55
2021/01/19 07:27:08;;;;;;;;;;;26.40;34.10;;;;;;5034988;28;19909;-58
2021/01/19 07:29:33;;;;;;;;;;;26.40;34.10;;;;;;5050103;28;20404;-58
2021/01/19 07:31:59;;;;;;;;;;;26.50;34.10;;;;;;5049557;28;19917;-58
2021/01/19 07:34:25;;;;;;;;;;;26.50;34.10;;;;;;5034610;28;19913;-56
2021/01/19 07:36:56;;;;;;;;;;;26.50;34.00;;;;;;5033444;28;20285;-56
2021/01/19 07:39:22;;;;;;;;;;;26.50;34.00;;;;;;5034908;28;20061;-55
2021/01/19 07:41:48;;;;;;;;;;;26.50;34.00;;;;;;5034820;28;19917;-54
2021/01/19 07:44:21;;;;;;;;;;;26.50;34.00;;;;;;5034590;28;20401;-56
2021/01/19 07:46:46;;;;;;;;;;;26.60;34.00;;;;;;5034525;28;19910;-57
2021/01/19 07:49:12;;;;;;;;;;;26.50;33.90;;;;;;5034028;28;19955;-57
2021/01/19 07:51:44;;;;;;;;;;;26.60;33.90;;;;;;5034609;28;19935;-57
2021/01/19 07:54:21;;;;;;;;;;;26.60;33.90;;;;;;5034220;28;19995;-57
2021/01/19 07:56:47;;;;;;;;;;;26.60;34.40;;;;;;5033436;28;19921;-55
2021/01/19 07:59:16;;;;;;;;;;;26.30;29.40;;;;;;5034306;28;19913;-69
2021/01/19 08:01:52;;;;;;;;;;;26.00;30.20;;;;;;5033494;28;19913;-66
2021/01/19 08:04:17;;;;;;;;;;;26.10;30.40;;;;;;5014682;28;19947;-72
2021/01/19 08:06:43;;;;;;;;;;;26.40;31.10;;;;;;5029566;28;19910;-70
2021/01/19 08:09:09;;;;;;;;;;;26.50;31.80;;;;;;5014610;28;20377;-69
2021/01/19 08:11:34;;;;;;;;;;;26.70;32.00;;;;;;5014555;28;19999;-67
2021/01/19 08:14:00;;;;;;;;;;;26.80;32.10;;;;;;5013855;28;19980;-70
2021/01/19 08:16:26;;;;;;;;;;;26.90;32.30;;;;;;5017365;28;20342;-66
2021/01/19 08:18:57;;;;;;;;;;;27.00;32.50;;;;;;5034132;28;19909;-72
2021/01/19 08:21:23;;;;;;;;;;;27.10;32.70;;;;;;5033924;28;19971;-72
2021/01/19 08:23:48;;;;;;;;;;;27.20;32.90;;;;;;5049404;28;20378;-73
2021/01/19 08:26:14;;;;;;;;;;;27.30;33.20;;;;;;5033742;28;19910;-71
2021/01/19 08:28:39;;;;;;;;;;;27.40;33.40;;;;;;5033730;28;19915;-74
2021/01/19 08:31:14;;;;;;;;;;;27.50;33.50;;;;;;5033618;28;19943;-75
2021/01/19 08:33:40;;;;;;;;;;;27.50;33.80;;;;;;5033924;28;19909;-77
2021/01/19 08:36:05;;;;;;;;;;;27.60;34.10;;;;;;5033722;28;20396;-75
2021/01/19 08:38:31;;;;;;;;;;;27.60;34.30;;;;;;5048910;28;19920;-68
2021/01/19 08:40:56;;;;;;;;;;;27.70;34.50;;;;;;5049001;28;19909;-68
2021/01/19 08:43:22;;;;;;;;;;;27.70;34.50;;;;;;5033292;28;19917;-70
2021/01/19 08:45:48;;;;;;;;;;;27.80;35.10;;;;;;5033310;28;19917;-69
2021/01/19 08:48:14;;;;;;;;;;;27.80;35.20;;;;;;5033535;28;19916;-77
2021/01/19 08:50:40;;;;;;;;;;;27.90;35.40;;;;;;5049077;28;19935;-70
2021/01/19 08:53:12;;;;;;;;;;;27.90;35.40;;;;;;5033257;28;19913;-72
2021/01/19 08:55:37;;;;;;;;;;;28.00;35.50;;;;;;5033125;28;20021;-73
2021/01/19 08:58:03;;;;;;;;;;;28.00;35.70;;;;;;5033477;28;20359;-77
2021/01/19 09:00:29;;;;;;;;;;;28.00;35.70;;;;;;5032562;28;20389;-71
2021/01/19 09:02:58;;;;;;;;;;;28.10;35.80;;;;;;5033373;28;19921;-76
2021/01/19 09:05:27;;;;;;;;;;;28.10;35.90;;;;;;5033267;28;19909;-71
2021/01/19 09:07:53;;;;;;;;;;;28.20;36.20;;;;;;5033175;28;20355;-73
2021/01/19 09:10:19;;;;;;;;;;;28.20;36.10;;;;;;5033022;28;19956;-70
2021/01/19 09:12:44;;;;;;;;;;;28.30;36.20;;;;;;5032965;28;19909;-68
2021/01/19 09:15:12;;;;;;;;;;;28.30;36.40;;;;;;5048340;28;19913;-63
2021/01/19 09:17:37;;;;;;;;;;;28.40;36.40;;;;;;5032435;28;19909;-66
2021/01/19 09:20:04;;;;;;;;;;;28.40;36.50;;;;;;5032892;28;19996;-68
2021/01/19 09:22:29;;;;;;;;;;;28.40;37.00;;;;;;5032795;28;19909;-69
2021/01/19 09:24:55;;;;;;;;;;;28.50;36.40;;;;;;5048372;28;19914;-67
2021/01/19 09:27:20;;;;;;;;;;;28.50;36.40;;;;;;5033227;28;20376;-64
2021/01/19 09:29:46;;;;;;;;;;;28.50;33.90;;;;;;5032521;28;20332;-64
2021/01/19 09:32:11;;;;;;;;;;;28.30;32.60;;;;;;5048494;28;19944;-64
2021/01/19 09:34:37;;;;;;;;;;;28.20;34.10;;;;;;5048493;28;20262;-64
2021/01/19 09:37:08;;;;;;;;;;;28.20;34.70;;;;;;5048154;28;19948;-71
2021/01/19 09:39:34;;;;;;;;;;;28.30;34.60;;;;;;5047574;28;20376;-70
2021/01/19 09:42:00;;;;;;;;;;;28.30;35.00;;;;;;5033046;28;19940;-74
2021/01/19 09:44:26;;;;;;;;;;;28.40;35.10;;;;;;5032569;28;19922;-73
2021/01/19 09:46:54;;;;;;;;;;;28.50;35.20;;;;;;5048413;28;19935;-66
2021/01/19 09:49:22;;;;;;;;;;;28.60;35.20;;;;;;5032892;28;19916;-74
2021/01/19 09:51:48;;;;;;;;;;;28.70;35.30;;;;;;5048548;28;19917;-82
2021/01/19 09:54:20;;;;;;;;;;;28.80;35.30;;;;;;5032496;28;19916;-74
2021/01/19 09:56:53;;;;;;;;;;;28.80;35.30;;;;;;5033168;28;19913;-74
2021/01/19 09:59:19;;;;;;;;;;;28.80;35.50;;;;;;5047654;28;20012;-78
2021/01/19 10:01:50;;;;;;;;;;;28.90;35.60;;;;;;5048320;28;19952;-78
2021/01/19 10:04:18;;;;;;;;;;;28.90;35.70;;;;;;5032470;28;19921;-68
2021/01/19 10:06:44;;;;;;;;;;;28.90;35.90;;;;;;5032860;28;19996;-70
2021/01/19 10:09:19;;;;;;;;;;;28.90;36.00;;;;;;5048123;28;19909;-67
2021/01/19 10:11:44;;;;;;;;;;;28.90;36.00;;;;;;5032433;28;19913;-76
2021/01/19 10:14:14;;;;;;;;;;;28.90;36.10;;;;;;5032076;28;20057;-69
2021/01/19 10:16:48;;;;;;;;;;;28.90;36.10;;;;;;5032582;28;19909;-62
2021/01/19 10:19:21;;;;;;;;;;;28.90;36.30;;;;;;5032669;28;19932;-77
2021/01/19 10:21:50;;;;;;;;;;;28.80;36.40;;;;;;5032604;28;20392;-64
2021/01/19 10:24:16;;;;;;;;;;;28.80;36.60;;;;;;5032536;28;19928;-69
2021/01/19 10:26:43;;;;;;;;;;;28.80;36.60;;;;;;5032338;28;19916;-65
2021/01/19 10:29:08;;;;;;;;;;;28.80;36.60;;;;;;5032427;28;20286;-61
2021/01/19 10:31:36;;;;;;;;;;;28.80;36.70;;;;;;5031794;28;19924;-73
2021/01/19 10:34:04;;;;;;;;;;;28.80;36.80;;;;;;5047545;28;19909;-68
2021/01/19 10:36:30;;;;;;;;;;;28.80;36.70;;;;;;5034040;28;19975;-66
2021/01/19 10:39:01;;;;;;;;;;;28.80;36.70;;;;;;5036056;28;19950;-66
2021/01/19 10:41:27;;;;;;;;;;;28.80;36.80;;;;;;5035457;28;19913;-67
2021/01/19 10:43:52;;;;;;;;;;;28.80;36.80;;;;;;5035547;28;20449;-70
2021/01/19 10:46:25;;;;;;;;;;;28.80;36.80;;;;;;5035610;28;19956;-73
2021/01/19 10:49:09;;;;;;;;;;;28.80;36.80;;;;;;5035764;28;19909;-71
2021/01/19 10:51:35;;;;;;;;;;;28.80;37.00;;;;;;5035433;28;19910;-71
2021/01/19 10:54:04;;;;;;;;;;;28.80;37.10;;;;;;5035498;28;19989;-66
2021/01/19 10:56:30;;;;;;;;;;;28.80;37.20;;;;;;5034907;28;20302;-61
2021/01/19 10:58:55;;;;;;;;;;;28.80;37.00;;;;;;5035358;28;19909;-63
2021/01/19 11:01:21;;;;;;;;;;;28.60;36.70;;;;;;5035507;28;19967;-75
2021/01/19 11:03:46;;;;;;;;;;;28.50;37.20;;;;;;5035585;28;19940;-68
2021/01/19 11:06:12;;;;;;;;;;;28.60;37.10;;;;;;5035590;28;20374;-72
2021/01/19 11:08:37;;;;;;;;;;;28.70;37.00;;;;;;5035292;28;19913;-70
2021/01/19 11:11:03;;;;;;;;;;;28.70;36.80;;;;;;5035121;28;19913;-72
2021/01/19 11:13:29;;;;;;;;;;;28.80;37.00;;;;;;5035160;28;19920;-71
2021/01/19 11:15:54;;;;;;;;;;;28.60;36.90;;;;;;5034938;28;19924;-67
2021/01/19 11:18:20;;;;;;;;;;;28.60;37.30;;;;;;5035036;28;20062;-65
2021/01/19 11:20:45;;;;;;;;;;;28.70;37.20;;;;;;5035147;28;19913;-71
2021/01/19 11:23:11;;;;;;;;;;;28.80;37.20;;;;;;5035240;28;20251;-71
2021/01/19 11:25:36;;;;;;;;;;;28.80;37.10;;;;;;5035228;28;19909;-69
2021/01/19 11:28:02;;;;;;;;;;;28.80;37.10;;;;;;5035156;28;19944;-65
2021/01/19 11:30:27;;;;;;;;;;;28.80;37.10;;;;;;5034753;28;19910;-66
2021/01/19 11:32:53;;;;;;;;;;;28.80;37.00;;;;;;5034482;28;19913;-65
2021/01/19 11:35:18;;;;;;;;;;;28.80;37.00;;;;;;5034761;28;20035;-74
2021/01/19 11:37:44;;;;;;;;;;;28.50;29.60;;;;;;5034686;28;19913;-73
2021/01/19 11:40:09;;;;;;;;;;;27.20;25.60;;;;;;5034744;28;19932;-73
2021/01/19 11:42:35;;;;;;;;;;;26.00;24.20;;;;;;5034712;28;19956;-72
2021/01/19 11:45:00;;;;;;;;;;;25.20;24.30;;;;;;5034806;28;19909;-72
2021/01/19 11:47:26;;;;;;;;;;;24.50;23.70;;;;;;5033468;28;20289;-68
2021/01/19 11:49:51;;;;;;;;;;;23.90;25.80;;;;;;5034013;28;19913;-69
2021/01/19 11:52:18;;;;;;;;;;;24.30;28.20;;;;;;5034236;28;19920;-70
2021/01/19 11:54:43;;;;;;;;;;;25.10;28.20;;;;;;5034430;28;19970;-70
2021/01/19 11:57:09;;;;;;;;;;;25.80;28.20;;;;;;5034315;28;20011;-70
2021/01/19 11:59:35;;;;;;;;;;;26.40;28.10;;;;;;5034577;28;20452;-66
2021/01/19 12:02:00;;;;;;;;;;;26.70;29.80;;;;;;5033941;28;19913;-65
2021/01/19 12:04:26;;;;;;;;;;;27.10;29.90;;;;;;5034027;28;19917;-61
2021/01/19 12:06:51;;;;;;;;;;;27.20;31.00;;;;;;5034272;28;19959;-66
2021/01/19 12:09:17;;;;;;;;;;;27.50;33.10;;;;;;5034109;28;20270;-59
2021/01/19 12:11:42;;;;;;;;;;;27.80;33.70;;;;;;5033959;28;19916;-74
2021/01/19 12:14:08;;;;;;;;;;;28.00;33.50;;;;;;5033992;28;19916;-62
2021/01/19 12:16:36;;;;;;;;;;;28.20;33.50;;;;;;5033943;28;19913;-64
2021/01/19 12:19:09;;;;;;;;;;;28.30;33.50;;;;;;5034220;28;20003;-68
2021/01/19 12:21:35;;;;;;;;;;;28.40;33.50;;;;;;5034201;28;19956;-68
2021/01/19 12:24:00;;;;;;;;;;;28.60;33.60;;;;;;5033996;28;19968;-52
2021/01/19 12:26:25;;;;;;;;;;;28.50;31.40;;;;;;5033361;28;19917;-65
2021/01/19 12:28:51;;;;;;;;;;;28.00;32.20;;;;;;5034032;28;19909;-68
2021/01/19 12:31:17;;;;;;;;;;;28.10;32.60;;;;;;5033730;28;20397;-67
2021/01/19 12:33:43;;;;;;;;;;;28.10;33.20;;;;;;5033885;28;19913;-70
2021/01/19 12:36:09;;;;;;;;;;;28.20;33.40;;;;;;5033878;28;19909;-76
2021/01/19 12:38:34;;;;;;;;;;;28.20;33.50;;;;;;5033898;28;20409;-71
2021/01/19 12:41:00;;;;;;;;;;;28.20;33.60;;;;;;5031914;28;19955;-76
2021/01/19 12:43:25;;;;;;;;;;;28.30;33.70;;;;;;5033287;28;19924;-65
2021/01/19 12:45:51;;;;;;;;;;;28.30;33.80;;;;;;5033728;28;19955;-78
2021/01/19 12:48:16;;;;;;;;;;;28.30;33.90;;;;;;5033129;28;20255;-71
2021/01/19 12:50:43;;;;;;;;;;;28.30;33.90;;;;;;5033249;28;19909;-67
2021/01/19 12:53:08;;;;;;;;;;;28.30;34.10;;;;;;5033165;28;19909;-70
2021/01/19 12:55:34;;;;;;;;;;;28.30;34.00;;;;;;5033171;28;19927;-67
2021/01/19 12:57:59;;;;;;;;;;;28.30;34.10;;;;;;5033175;28;19917;-68
2021/01/19 13:00:25;;;;;;;;;;;28.40;34.70;;;;;;5033050;28;20020;-69
2021/01/19 13:02:51;;;;;;;;;;;28.40;34.20;;;;;;5032881;28;20371;-69
2021/01/19 13:05:16;;;;;;;;;;;28.40;34.40;;;;;;5033473;28;19961;-74
2021/01/19 13:07:42;;;;;;;;;;;28.40;34.60;;;;;;5033281;28;20267;-68
2021/01/19 13:10:07;;;;;;;;;;;28.40;34.60;;;;;;5032993;28;19909;-72
2021/01/19 13:12:33;;;;;;;;;;;28.40;34.70;;;;;;5033466;28;19916;-67
2021/01/19 13:14:59;;;;;;;;;;;28.40;34.90;;;;;;5033071;28;19909;-68
2021/01/19 13:17:25;;;;;;;;;;;28.40;34.80;;;;;;5032999;28;20297;-78
2021/01/19 13:19:50;;;;;;;;;;;28.40;34.90;;;;;;5032570;28;19917;-67
2021/01/19 13:22:16;;;;;;;;;;;28.50;35.00;;;;;;5032766;28;19913;-67
2021/01/19 13:24:41;;;;;;;;;;;28.50;34.50;;;;;;5032654;28;19921;-63
2021/01/19 13:27:07;;;;;;;;;;;28.50;34.60;;;;;;5032686;28;19909;-63
2021/01/19 13:29:32;;;;;;;;;;;28.40;34.60;;;;;;5032970;28;19944;-63
2021/01/19 13:32:01;;;;;;;;;;;28.50;34.40;;;;;;5032620;28;20378;-59
2021/01/19 13:34:27;;;;;;;;;;;28.50;34.10;;;;;;5032857;28;19917;-63
2021/01/19 13:36:52;;;;;;;;;;;28.50;34.10;;;;;;5033033;28;19913;-63
2021/01/19 13:39:18;;;;;;;;;;;28.60;34.00;;;;;;5032951;28;20312;-80
2021/01/19 13:41:44;;;;;;;;;;;28.50;34.10;;;;;;5032359;28;20454;-71
2021/01/19 13:44:09;;;;;;;;;;;28.60;34.20;;;;;;5047782;28;19917;-74
2021/01/19 13:46:35;;;;;;;;;;;28.60;34.10;;;;;;5032729;28;20259;-67
2021/01/19 13:49:00;;;;;;;;;;;28.60;34.10;;;;;;5032911;28;19937;-70
2021/01/19 13:51:26;;;;;;;;;;;28.70;34.10;;;;;;5032787;28;20713;-77
2021/01/19 13:53:51;;;;;;;;;;;28.70;34.00;;;;;;5033110;28;20039;-66
2021/01/19 13:56:17;;;;;;;;;;;28.80;34.00;;;;;;5031841;28;19931;-59
2021/01/19 13:58:42;;;;;;;;;;;28.80;34.20;;;;;;5025444;28;19920;-67
2021/01/19 14:01:08;;;;;;;;;;;28.70;34.10;;;;;;5032593;28;20323;-57
2021/01/19 14:03:34;;;;;;;;;;;28.50;34.40;;;;;;5032757;28;20007;-67
2021/01/19 14:05:59;;;;;;;;;;;28.50;35.10;;;;;;5032825;28;19909;-75
2021/01/19 14:08:24;;;;;;;;;;;28.60;34.50;;;;;;5032453;28;19919;-65
2021/01/19 14:10:50;;;;;;;;;;;28.70;34.50;;;;;;5032694;28;20012;-61
2021/01/19 14:13:15;;;;;;;;;;;28.70;34.40;;;;;;5036318;28;19936;-57
2021/01/19 14:15:41;;;;;;;;;;;28.70;34.60;;;;;;5036313;28;20282;-53